SBRF/REC METAR and TAF weather

Enter ICAO airport designator
Station Type Date Time Source
SBRF METAR 2019/12/08 01:00 UTC NOAA

SBRF 080100Z 04006KT 360V080 9999 BKN019 28/24 Q1011


Station Type Date Time Source
SBRF Decoded METAR 2019/12/08 01:00 UTC NOAA

Recife Aeroporto , Brazil (SBRF) 08-04S 034-51W
Dec 07, 2019 - 08:00 PM EST / 2019.12.08 0100 UTC
Wind: from the NE (040 degrees) at 7 MPH (6 KT) (direction variable):0
Visibility: greater than 7 mile(s):0
Sky conditions: mostly cloudy
Temperature: 82 F (28 C)
Dew Point: 75 F (24 C)
Relative Humidity: 78%
Pressure (altimeter): 29.85 in. Hg (1011 hPa)
ob: SBRF 080100Z 04006KT 360V080 9999 BKN019 28/24 Q1011
cycle: 1

Station Type Date Time Source
SBRF TAF 2019/12/08 00:00 UTC NOAA

TAF SBRF 072200Z 0800/0824 08005KT 9999 SCT020 TN25/0808Z TX31/0816Z
BECMG 0805/0807 33005KT
BECMG 0810/0811 08010KT SCT023
BECMG 0819/0821 07005KT FEW020
RMK PFY

Example: see airport list